sensor_id;sensor_type;location;lat;lon;timestamp;P1;durP1;ratioP1;P2;durP2;ratioP2
8260;SDS011;64115;50.170;8.242;2022-11-14T00:01:36;6.43;;;5.07;;
8260;SDS011;64115;50.170;8.242;2022-11-14T00:04:03;5.23;;;4.77;;
8260;SDS011;64115;50.170;8.242;2022-11-14T00:06:30;5.77;;;5.27;;
8260;SDS011;64115;50.170;8.242;2022-11-14T00:08:57;5.80;;;5.30;;
8260;SDS011;64115;50.170;8.242;2022-11-14T00:11:25;5.50;;;5.00;;
8260;SDS011;64115;50.170;8.242;2022-11-14T00:13:52;6.27;;;5.67;;
8260;SDS011;64115;50.170;8.242;2022-11-14T00:16:18;5.67;;;4.80;;
8260;SDS011;64115;50.170;8.242;2022-11-14T00:18:46;7.27;;;5.53;;
8260;SDS011;64115;50.170;8.242;2022-11-14T00:21:13;6.20;;;5.60;;
8260;SDS011;64115;50.170;8.242;2022-11-14T00:23:40;6.33;;;5.73;;
8260;SDS011;64115;50.170;8.242;2022-11-14T00:26:07;6.50;;;5.70;;
8260;SDS011;64115;50.170;8.242;2022-11-14T00:28:34;5.77;;;4.90;;
8260;SDS011;64115;50.170;8.242;2022-11-14T00:31:00;5.90;;;5.40;;
8260;SDS011;64115;50.170;8.242;2022-11-14T00:33:27;6.40;;;5.80;;
8260;SDS011;64115;50.170;8.242;2022-11-14T00:35:55;6.07;;;5.47;;
8260;SDS011;64115;50.170;8.242;2022-11-14T00:38:22;6.87;;;5.90;;
8260;SDS011;64115;50.170;8.242;2022-11-14T01:10:54;7.90;;;6.70;;
8260;SDS011;64115;50.170;8.242;2022-11-14T01:13:21;8.27;;;7.37;;
8260;SDS011;64115;50.170;8.242;2022-11-14T01:15:48;8.40;;;6.90;;
8260;SDS011;64115;50.170;8.242;2022-11-14T01:18:16;9.00;;;7.10;;
8260;SDS011;64115;50.170;8.242;2022-11-14T01:20:45;10.03;;;8.13;;
8260;SDS011;64115;50.170;8.242;2022-11-14T01:23:14;9.53;;;8.03;;
8260;SDS011;64115;50.170;8.242;2022-11-14T01:25:42;10.17;;;7.93;;
8260;SDS011;64115;50.170;8.242;2022-11-14T01:28:10;8.77;;;7.80;;
8260;SDS011;64115;50.170;8.242;2022-11-14T01:30:38;10.30;;;7.70;;
8260;SDS011;64115;50.170;8.242;2022-11-14T01:33:06;11.97;;;8.20;;
8260;SDS011;64115;50.170;8.242;2022-11-14T01:35:34;9.03;;;8.13;;
8260;SDS011;64115;50.170;8.242;2022-11-14T01:38:01;9.20;;;8.23;;
8260;SDS011;64115;50.170;8.242;2022-11-14T01:40:29;9.30;;;8.30;;
8260;SDS011;64115;50.170;8.242;2022-11-14T01:45:58;9.23;;;8.20;;
8260;SDS011;64115;50.170;8.242;2022-11-14T01:48:28;14.07;;;8.83;;
8260;SDS011;64115;50.170;8.242;2022-11-14T01:50:59;9.17;;;8.20;;
8260;SDS011;64115;50.170;8.242;2022-11-14T01:53:30;13.80;;;9.30;;
8260;SDS011;64115;50.170;8.242;2022-11-14T01:55:58;11.70;;;8.90;;
8260;SDS011;64115;50.170;8.242;2022-11-14T01:58:30;12.57;;;9.43;;
8260;SDS011;64115;50.170;8.242;2022-11-14T02:00:58;11.17;;;8.63;;
8260;SDS011;64115;50.170;8.242;2022-11-14T02:03:25;12.80;;;8.87;;
8260;SDS011;64115;50.170;8.242;2022-11-14T02:05:52;11.00;;;9.07;;
8260;SDS011;64115;50.170;8.242;2022-11-14T02:08:20;11.23;;;9.10;;
8260;SDS011;64115;50.170;8.242;2022-11-14T02:10:48;10.83;;;9.70;;
8260;SDS011;64115;50.170;8.242;2022-11-14T02:13:15;16.50;;;10.27;;
8260;SDS011;64115;50.170;8.242;2022-11-14T02:15:43;14.63;;;10.67;;
8260;SDS011;64115;50.170;8.242;2022-11-14T02:18:10;12.07;;;10.23;;
8260;SDS011;64115;50.170;8.242;2022-11-14T02:20:38;11.00;;;9.40;;
8260;SDS011;64115;50.170;8.242;2022-11-14T02:23:07;11.73;;;9.90;;
8260;SDS011;64115;50.170;8.242;2022-11-14T02:25:35;13.40;;;9.63;;
8260;SDS011;64115;50.170;8.242;2022-11-14T02:28:04;12.83;;;9.30;;
8260;SDS011;64115;50.170;8.242;2022-11-14T02:30:32;13.33;;;10.20;;
8260;SDS011;64115;50.170;8.242;2022-11-14T02:32:59;12.00;;;9.57;;
8260;SDS011;64115;50.170;8.242;2022-11-14T02:35:26;12.53;;;10.43;;
8260;SDS011;64115;50.170;8.242;2022-11-14T02:37:54;15.00;;;10.80;;
8260;SDS011;64115;50.170;8.242;2022-11-14T02:40:21;12.13;;;9.87;;
8260;SDS011;64115;50.170;8.242;2022-11-14T02:42:47;14.03;;;9.97;;
8260;SDS011;64115;50.170;8.242;2022-11-14T02:45:14;13.37;;;11.10;;
8260;SDS011;64115;50.170;8.242;2022-11-14T02:47:41;13.23;;;10.93;;
8260;SDS011;64115;50.170;8.242;2022-11-14T02:50:08;14.67;;;10.17;;
8260;SDS011;64115;50.170;8.242;2022-11-14T02:52:35;15.20;;;10.90;;
8260;SDS011;64115;50.170;8.242;2022-11-14T02:55:04;11.83;;;10.30;;
8260;SDS011;64115;50.170;8.242;2022-11-14T02:57:31;15.13;;;10.67;;
8260;SDS011;64115;50.170;8.242;2022-11-14T02:59:58;14.73;;;10.90;;
8260;SDS011;64115;50.170;8.242;2022-11-14T03:02:25;14.60;;;11.23;;
8260;SDS011;64115;50.170;8.242;2022-11-14T03:04:52;16.40;;;11.73;;
8260;SDS011;64115;50.170;8.242;2022-11-14T03:07:19;14.53;;;11.47;;
8260;SDS011;64115;50.170;8.242;2022-11-14T03:09:46;14.63;;;11.97;;
8260;SDS011;64115;50.170;8.242;2022-11-14T03:12:15;15.73;;;12.30;;
8260;SDS011;64115;50.170;8.242;2022-11-14T03:14:42;15.10;;;12.13;;
8260;SDS011;64115;50.170;8.242;2022-11-14T03:17:09;17.30;;;12.93;;
8260;SDS011;64115;50.170;8.242;2022-11-14T03:19:37;19.30;;;12.13;;
8260;SDS011;64115;50.170;8.242;2022-11-14T03:22:03;16.90;;;12.87;;
8260;SDS011;64115;50.170;8.242;2022-11-14T03:24:31;14.87;;;11.13;;
8260;SDS011;64115;50.170;8.242;2022-11-14T03:26:57;15.73;;;11.67;;
8260;SDS011;64115;50.170;8.242;2022-11-14T03:29:26;14.40;;;10.87;;
8260;SDS011;64115;50.170;8.242;2022-11-14T03:31:53;18.97;;;13.17;;
8260;SDS011;64115;50.170;8.242;2022-11-14T03:34:19;20.73;;;12.87;;
8260;SDS011;64115;50.170;8.242;2022-11-14T03:36:46;15.90;;;11.27;;
8260;SDS011;64115;50.170;8.242;2022-11-14T03:39:13;16.43;;;12.27;;
8260;SDS011;64115;50.170;8.242;2022-11-14T03:41:40;17.20;;;12.03;;
8260;SDS011;64115;50.170;8.242;2022-11-14T03:44:06;17.10;;;12.80;;
8260;SDS011;64115;50.170;8.242;2022-11-14T03:46:35;17.53;;;13.07;;
8260;SDS011;64115;50.170;8.242;2022-11-14T03:49:01;17.83;;;12.40;;
8260;SDS011;64115;50.170;8.242;2022-11-14T03:51:28;18.80;;;12.80;;
8260;SDS011;64115;50.170;8.242;2022-11-14T03:53:55;17.93;;;13.67;;
8260;SDS011;64115;50.170;8.242;2022-11-14T03:56:22;17.67;;;12.37;;
8260;SDS011;64115;50.170;8.242;2022-11-14T03:58:49;21.20;;;14.00;;
8260;SDS011;64115;50.170;8.242;2022-11-14T04:01:15;18.50;;;13.17;;
8260;SDS011;64115;50.170;8.242;2022-11-14T04:03:44;22.10;;;14.13;;
8260;SDS011;64115;50.170;8.242;2022-11-14T04:06:10;20.27;;;13.70;;
8260;SDS011;64115;50.170;8.242;2022-11-14T04:08:38;19.57;;;13.37;;
8260;SDS011;64115;50.170;8.242;2022-11-14T04:11:05;20.50;;;13.73;;
8260;SDS011;64115;50.170;8.242;2022-11-14T04:13:32;18.47;;;13.57;;
8260;SDS011;64115;50.170;8.242;2022-11-14T04:15:58;19.07;;;13.27;;
8260;SDS011;64115;50.170;8.242;2022-11-14T04:18:26;22.00;;;14.07;;
8260;SDS011;64115;50.170;8.242;2022-11-14T04:20:54;19.93;;;13.93;;
8260;SDS011;64115;50.170;8.242;2022-11-14T04:23:21;19.13;;;13.63;;
8260;SDS011;64115;50.170;8.242;2022-11-14T04:25:48;19.37;;;14.13;;
8260;SDS011;64115;50.170;8.242;2022-11-14T04:28:15;20.07;;;14.67;;
8260;SDS011;64115;50.170;8.242;2022-11-14T04:30:42;19.73;;;13.87;;
8260;SDS011;64115;50.170;8.242;2022-11-14T04:33:10;17.13;;;13.53;;
8260;SDS011;64115;50.170;8.242;2022-11-14T04:35:37;19.03;;;13.83;;
8260;SDS011;64115;50.170;8.242;2022-11-14T04:38:05;19.77;;;13.53;;
8260;SDS011;64115;50.170;8.242;2022-11-14T04:40:32;20.30;;;14.73;;
8260;SDS011;64115;50.170;8.242;2022-11-14T04:42:59;15.97;;;13.20;;
8260;SDS011;64115;50.170;8.242;2022-11-14T04:45:26;19.50;;;14.60;;
8260;SDS011;64115;50.170;8.242;2022-11-14T04:47:53;22.37;;;15.20;;
8260;SDS011;64115;50.170;8.242;2022-11-14T04:50:19;20.50;;;14.80;;
8260;SDS011;64115;50.170;8.242;2022-11-14T04:52:49;21.73;;;15.23;;
8260;SDS011;64115;50.170;8.242;2022-11-14T04:55:19;21.27;;;16.17;;
8260;SDS011;64115;50.170;8.242;2022-11-14T04:57:45;20.43;;;14.63;;
8260;SDS011;64115;50.170;8.242;2022-11-14T05:00:13;23.93;;;16.63;;
8260;SDS011;64115;50.170;8.242;2022-11-14T05:02:40;24.37;;;16.07;;
8260;SDS011;64115;50.170;8.242;2022-11-14T05:05:07;24.37;;;16.17;;
8260;SDS011;64115;50.170;8.242;2022-11-14T05:07:34;24.37;;;16.50;;
8260;SDS011;64115;50.170;8.242;2022-11-14T05:10:01;21.43;;;15.17;;
8260;SDS011;64115;50.170;8.242;2022-11-14T05:12:29;22.77;;;16.23;;
8260;SDS011;64115;50.170;8.242;2022-11-14T05:14:56;25.20;;;17.43;;
8260;SDS011;64115;50.170;8.242;2022-11-14T05:17:23;29.07;;;18.47;;
8260;SDS011;64115;50.170;8.242;2022-11-14T05:19:50;25.47;;;16.13;;
8260;SDS011;64115;50.170;8.242;2022-11-14T05:22:17;27.50;;;17.27;;
8260;SDS011;64115;50.170;8.242;2022-11-14T05:24:44;29.60;;;17.87;;
8260;SDS011;64115;50.170;8.242;2022-11-14T05:27:11;27.10;;;17.97;;
8260;SDS011;64115;50.170;8.242;2022-11-14T05:29:39;27.47;;;17.10;;
8260;SDS011;64115;50.170;8.242;2022-11-14T05:32:06;26.83;;;18.20;;
8260;SDS011;64115;50.170;8.242;2022-11-14T05:34:33;28.97;;;18.53;;
8260;SDS011;64115;50.170;8.242;2022-11-14T05:36:59;31.00;;;18.27;;
8260;SDS011;64115;50.170;8.242;2022-11-14T05:39:27;27.80;;;18.27;;
8260;SDS011;64115;50.170;8.242;2022-11-14T05:41:54;31.33;;;18.40;;
8260;SDS011;64115;50.170;8.242;2022-11-14T05:44:21;33.13;;;19.90;;
8260;SDS011;64115;50.170;8.242;2022-11-14T05:46:49;30.87;;;18.87;;
8260;SDS011;64115;50.170;8.242;2022-11-14T05:49:16;35.87;;;20.37;;
8260;SDS011;64115;50.170;8.242;2022-11-14T05:51:43;33.50;;;19.83;;
8260;SDS011;64115;50.170;8.242;2022-11-14T05:54:10;38.80;;;21.97;;
8260;SDS011;64115;50.170;8.242;2022-11-14T05:56:37;37.77;;;21.07;;
8260;SDS011;64115;50.170;8.242;2022-11-14T05:59:03;38.50;;;20.87;;
8260;SDS011;64115;50.170;8.242;2022-11-14T06:01:30;39.80;;;21.57;;
8260;SDS011;64115;50.170;8.242;2022-11-14T06:03:58;39.70;;;21.37;;
8260;SDS011;64115;50.170;8.242;2022-11-14T06:06:25;40.40;;;20.90;;
8260;SDS011;64115;50.170;8.242;2022-11-14T06:08:52;38.87;;;21.53;;
8260;SDS011;64115;50.170;8.242;2022-11-14T06:11:19;40.87;;;22.20;;
8260;SDS011;64115;50.170;8.242;2022-11-14T06:13:46;48.40;;;22.07;;
8260;SDS011;64115;50.170;8.242;2022-11-14T06:16:14;40.07;;;21.93;;
8260;SDS011;64115;50.170;8.242;2022-11-14T06:18:42;44.10;;;22.43;;
8260;SDS011;64115;50.170;8.242;2022-11-14T06:21:11;41.87;;;21.90;;
8260;SDS011;64115;50.170;8.242;2022-11-14T06:23:39;43.40;;;22.90;;
8260;SDS011;64115;50.170;8.242;2022-11-14T06:26:06;40.30;;;21.63;;
8260;SDS011;64115;50.170;8.242;2022-11-14T06:28:41;37.47;;;21.83;;
8260;SDS011;64115;50.170;8.242;2022-11-14T06:31:08;45.50;;;22.93;;
8260;SDS011;64115;50.170;8.242;2022-11-14T06:33:35;43.97;;;23.17;;
8260;SDS011;64115;50.170;8.242;2022-11-14T06:36:03;41.70;;;23.33;;
8260;SDS011;64115;50.170;8.242;2022-11-14T06:38:34;43.13;;;23.10;;
8260;SDS011;64115;50.170;8.242;2022-11-14T06:41:02;49.33;;;24.13;;
8260;SDS011;64115;50.170;8.242;2022-11-14T06:43:33;48.60;;;23.33;;
8260;SDS011;64115;50.170;8.242;2022-11-14T06:46:00;44.77;;;23.87;;
8260;SDS011;64115;50.170;8.242;2022-11-14T06:48:28;46.93;;;24.00;;
8260;SDS011;64115;50.170;8.242;2022-11-14T06:50:55;54.67;;;24.30;;
8260;SDS011;64115;50.170;8.242;2022-11-14T06:53:23;54.73;;;26.63;;
8260;SDS011;64115;50.170;8.242;2022-11-14T06:55:54;59.83;;;26.03;;
8260;SDS011;64115;50.170;8.242;2022-11-14T06:58:21;64.87;;;26.23;;
8260;SDS011;64115;50.170;8.242;2022-11-14T07:00:50;51.40;;;24.73;;
8260;SDS011;64115;50.170;8.242;2022-11-14T07:03:17;119.30;;;30.20;;
8260;SDS011;64115;50.170;8.242;2022-11-14T07:05:43;251.03;;;32.60;;
8260;SDS011;64115;50.170;8.242;2022-11-14T07:08:10;65.40;;;27.00;;
8260;SDS011;64115;50.170;8.242;2022-11-14T07:10:37;545.33;;;39.23;;
8260;SDS011;64115;50.170;8.242;2022-11-14T07:13:05;233.60;;;32.93;;
8260;SDS011;64115;50.170;8.242;2022-11-14T07:15:33;436.60;;;37.10;;
8260;SDS011;64115;50.170;8.242;2022-11-14T07:18:00;526.97;;;39.73;;
8260;SDS011;64115;50.170;8.242;2022-11-14T07:20:27;355.47;;;32.00;;
8260;SDS011;64115;50.170;8.242;2022-11-14T07:22:54;226.73;;;30.07;;
8260;SDS011;64115;50.170;8.242;2022-11-14T07:25:21;251.40;;;29.27;;
8260;SDS011;64115;50.170;8.242;2022-11-14T07:27:47;356.83;;;32.10;;
8260;SDS011;64115;50.170;8.242;2022-11-14T07:30:16;551.47;;;36.20;;
8260;SDS011;64115;50.170;8.242;2022-11-14T07:32:43;386.03;;;33.27;;
8260;SDS011;64115;50.170;8.242;2022-11-14T07:35:10;716.40;;;43.27;;
8260;SDS011;64115;50.170;8.242;2022-11-14T07:37:36;790.53;;;42.10;;
8260;SDS011;64115;50.170;8.242;2022-11-14T07:40:04;753.77;;;43.47;;
8260;SDS011;64115;50.170;8.242;2022-11-14T07:42:31;176.27;;;27.37;;
8260;SDS011;64115;50.170;8.242;2022-11-14T07:44:58;750.83;;;45.63;;
8260;SDS011;64115;50.170;8.242;2022-11-14T07:47:26;184.60;;;29.77;;
8260;SDS011;64115;50.170;8.242;2022-11-14T07:49:53;334.33;;;32.43;;
8260;SDS011;64115;50.170;8.242;2022-11-14T07:52:20;452.13;;;32.80;;
8260;SDS011;64115;50.170;8.242;2022-11-14T07:54:47;426.63;;;32.70;;
8260;SDS011;64115;50.170;8.242;2022-11-14T07:57:14;623.57;;;41.07;;
8260;SDS011;64115;50.170;8.242;2022-11-14T07:59:40;466.77;;;34.07;;
8260;SDS011;64115;50.170;8.242;2022-11-14T08:02:09;1047.00;;;57.67;;
8260;SDS011;64115;50.170;8.242;2022-11-14T08:04:39;1058.73;;;55.07;;
8260;SDS011;64115;50.170;8.242;2022-11-14T08:07:06;270.00;;;31.93;;
8260;SDS011;64115;50.170;8.242;2022-11-14T08:09:33;595.33;;;39.70;;
8260;SDS011;64115;50.170;8.242;2022-11-14T08:12:00;134.30;;;30.27;;
8260;SDS011;64115;50.170;8.242;2022-11-14T08:14:27;559.90;;;40.53;;
8260;SDS011;64115;50.170;8.242;2022-11-14T08:16:53;455.33;;;38.50;;
8260;SDS011;64115;50.170;8.242;2022-11-14T08:19:20;527.10;;;39.60;;
8260;SDS011;64115;50.170;8.242;2022-11-14T08:21:48;598.00;;;41.20;;
8260;SDS011;64115;50.170;8.242;2022-11-14T08:24:15;350.07;;;33.37;;
8260;SDS011;64115;50.170;8.242;2022-11-14T08:26:42;206.10;;;29.67;;
8260;SDS011;64115;50.170;8.242;2022-11-14T08:29:09;388.83;;;32.40;;
8260;SDS011;64115;50.170;8.242;2022-11-14T08:31:35;574.87;;;41.67;;
8260;SDS011;64115;50.170;8.242;2022-11-14T08:34:02;410.03;;;37.57;;
8260;SDS011;64115;50.170;8.242;2022-11-14T08:36:29;402.37;;;36.07;;
8260;SDS011;64115;50.170;8.242;2022-11-14T08:38:57;519.40;;;40.90;;
8260;SDS011;64115;50.170;8.242;2022-11-14T08:41:24;255.60;;;30.53;;
8260;SDS011;64115;50.170;8.242;2022-11-14T08:43:51;118.67;;;25.43;;
8260;SDS011;64115;50.170;8.242;2022-11-14T08:46:18;163.67;;;28.97;;
8260;SDS011;64115;50.170;8.242;2022-11-14T08:48:44;328.53;;;32.97;;
8260;SDS011;64115;50.170;8.242;2022-11-14T08:51:11;224.03;;;27.47;;
8260;SDS011;64115;50.170;8.242;2022-11-14T08:53:38;539.83;;;40.17;;
8260;SDS011;64115;50.170;8.242;2022-11-14T08:56:07;389.37;;;33.23;;
8260;SDS011;64115;50.170;8.242;2022-11-14T08:58:34;577.73;;;43.03;;
8260;SDS011;64115;50.170;8.242;2022-11-14T09:01:02;194.47;;;27.47;;
8260;SDS011;64115;50.170;8.242;2022-11-14T09:03:30;168.83;;;28.10;;
8260;SDS011;64115;50.170;8.242;2022-11-14T09:05:57;150.33;;;26.70;;
8260;SDS011;64115;50.170;8.242;2022-11-14T09:08:24;376.20;;;33.13;;
8260;SDS011;64115;50.170;8.242;2022-11-14T09:10:51;621.63;;;44.97;;
8260;SDS011;64115;50.170;8.242;2022-11-14T09:13:19;451.53;;;36.90;;
8260;SDS011;64115;50.170;8.242;2022-11-14T09:15:46;212.37;;;28.30;;
8260;SDS011;64115;50.170;8.242;2022-11-14T09:18:13;199.63;;;29.33;;
8260;SDS011;64115;50.170;8.242;2022-11-14T09:20:40;220.80;;;29.60;;
8260;SDS011;64115;50.170;8.242;2022-11-14T09:23:08;362.13;;;35.13;;
8260;SDS011;64115;50.170;8.242;2022-11-14T10:10:12;214.10;;;22.13;;
8260;SDS011;64115;50.170;8.242;2022-11-14T10:12:48;656.70;;;39.53;;
8260;SDS011;64115;50.170;8.242;2022-11-14T10:15:24;490.87;;;32.63;;
8260;SDS011;64115;50.170;8.242;2022-11-14T10:18:00;170.47;;;25.00;;
8260;SDS011;64115;50.170;8.242;2022-11-14T10:20:37;411.80;;;28.73;;
8260;SDS011;64115;50.170;8.242;2022-11-14T10:23:19;179.57;;;23.63;;
8260;SDS011;64115;50.170;8.242;2022-11-14T10:25:55;128.20;;;23.47;;
8260;SDS011;64115;50.170;8.242;2022-11-14T10:28:37;190.17;;;26.20;;
8260;SDS011;64115;50.170;8.242;2022-11-14T10:31:15;102.67;;;24.00;;
8260;SDS011;64115;50.170;8.242;2022-11-14T10:33:52;122.43;;;24.03;;
8260;SDS011;64115;50.170;8.242;2022-11-14T10:36:27;65.23;;;23.47;;
8260;SDS011;64115;50.170;8.242;2022-11-14T10:39:04;64.23;;;24.10;;
8260;SDS011;64115;50.170;8.242;2022-11-14T10:41:38;63.00;;;19.70;;
8260;SDS011;64115;50.170;8.242;2022-11-14T10:44:07;48.30;;;22.63;;
8260;SDS011;64115;50.170;8.242;2022-11-14T10:46:40;53.10;;;20.60;;
8260;SDS011;64115;50.170;8.242;2022-11-14T10:49:15;51.50;;;24.03;;
8260;SDS011;64115;50.170;8.242;2022-11-14T10:51:45;51.97;;;24.13;;
8260;SDS011;64115;50.170;8.242;2022-11-14T10:54:16;47.47;;;24.13;;
8260;SDS011;64115;50.170;8.242;2022-11-14T10:56:48;46.90;;;23.90;;
8260;SDS011;64115;50.170;8.242;2022-11-14T10:59:16;40.20;;;21.77;;
8260;SDS011;64115;50.170;8.242;2022-11-14T11:01:44;44.77;;;22.73;;
8260;SDS011;64115;50.170;8.242;2022-11-14T11:04:20;41.17;;;23.27;;
8260;SDS011;64115;50.170;8.242;2022-11-14T11:06:51;36.00;;;20.33;;
8260;SDS011;64115;50.170;8.242;2022-11-14T11:09:20;35.80;;;20.03;;
8260;SDS011;64115;50.170;8.242;2022-11-14T11:12:08;32.47;;;20.03;;
8260;SDS011;64115;50.170;8.242;2022-11-14T11:14:40;28.70;;;19.07;;
8260;SDS011;64115;50.170;8.242;2022-11-14T11:17:15;32.00;;;18.37;;
8260;SDS011;64115;50.170;8.242;2022-11-14T11:19:44;29.83;;;17.97;;
8260;SDS011;64115;50.170;8.242;2022-11-14T11:22:26;33.60;;;18.07;;
8260;SDS011;64115;50.170;8.242;2022-11-14T11:25:00;29.40;;;18.30;;
8260;SDS011;64115;50.170;8.242;2022-11-14T11:27:30;27.20;;;17.63;;
8260;SDS011;64115;50.170;8.242;2022-11-14T11:30:01;26.50;;;17.07;;
8260;SDS011;64115;50.170;8.242;2022-11-14T11:32:30;26.27;;;16.60;;
8260;SDS011;64115;50.170;8.242;2022-11-14T11:34:57;25.73;;;16.27;;
8260;SDS011;64115;50.170;8.242;2022-11-14T11:37:28;22.83;;;15.63;;
8260;SDS011;64115;50.170;8.242;2022-11-14T11:39:57;23.67;;;16.13;;
8260;SDS011;64115;50.170;8.242;2022-11-14T11:42:29;26.67;;;16.20;;
8260;SDS011;64115;50.170;8.242;2022-11-14T11:45:04;24.50;;;16.20;;
8260;SDS011;64115;50.170;8.242;2022-11-14T11:47:39;22.27;;;15.57;;
8260;SDS011;64115;50.170;8.242;2022-11-14T11:50:10;22.20;;;14.70;;
8260;SDS011;64115;50.170;8.242;2022-11-14T11:52:42;24.10;;;15.67;;
8260;SDS011;64115;50.170;8.242;2022-11-14T11:55:15;18.77;;;13.77;;
8260;SDS011;64115;50.170;8.242;2022-11-14T11:57:47;21.13;;;14.43;;
8260;SDS011;64115;50.170;8.242;2022-11-14T12:00:21;17.40;;;13.37;;
8260;SDS011;64115;50.170;8.242;2022-11-14T12:02:49;17.93;;;12.20;;
8260;SDS011;64115;50.170;8.242;2022-11-14T12:05:20;18.80;;;13.30;;
8260;SDS011;64115;50.170;8.242;2022-11-14T12:07:54;18.50;;;12.67;;
8260;SDS011;64115;50.170;8.242;2022-11-14T12:10:29;15.30;;;11.50;;
8260;SDS011;64115;50.170;8.242;2022-11-14T12:16:02;14.23;;;11.47;;
8260;SDS011;64115;50.170;8.242;2022-11-14T12:18:41;16.53;;;11.37;;
8260;SDS011;64115;50.170;8.242;2022-11-14T12:21:42;16.97;;;12.07;;
8260;SDS011;64115;50.170;8.242;2022-11-14T12:24:40;16.43;;;11.83;;
8260;SDS011;64115;50.170;8.242;2022-11-14T12:27:34;13.50;;;10.77;;
8260;SDS011;64115;50.170;8.242;2022-11-14T12:30:14;11.70;;;9.90;;
8260;SDS011;64115;50.170;8.242;2022-11-14T12:32:46;11.87;;;10.00;;
8260;SDS011;64115;50.170;8.242;2022-11-14T12:35:17;14.47;;;9.70;;
8260;SDS011;64115;50.170;8.242;2022-11-14T12:37:47;15.10;;;10.47;;
8260;SDS011;64115;50.170;8.242;2022-11-14T12:40:23;14.63;;;9.80;;
8260;SDS011;64115;50.170;8.242;2022-11-14T12:42:59;12.47;;;9.97;;
8260;SDS011;64115;50.170;8.242;2022-11-14T12:48:27;12.87;;;10.30;;
8260;SDS011;64115;50.170;8.242;2022-11-14T12:50:57;13.87;;;10.27;;
8260;SDS011;64115;50.170;8.242;2022-11-14T12:53:37;13.73;;;9.93;;
8260;SDS011;64115;50.170;8.242;2022-11-14T12:56:18;16.27;;;10.60;;
8260;SDS011;64115;50.170;8.242;2022-11-14T12:59:17;14.83;;;10.10;;
8260;SDS011;64115;50.170;8.242;2022-11-14T13:02:15;13.53;;;10.57;;
8260;SDS011;64115;50.170;8.242;2022-11-14T13:04:57;15.67;;;10.43;;
8260;SDS011;64115;50.170;8.242;2022-11-14T13:07:43;10.93;;;9.70;;
8260;SDS011;64115;50.170;8.242;2022-11-14T13:10:21;18.00;;;10.73;;
8260;SDS011;64115;50.170;8.242;2022-11-14T13:12:56;15.53;;;10.43;;
8260;SDS011;64115;50.170;8.242;2022-11-14T13:15:46;14.33;;;10.27;;
8260;SDS011;64115;50.170;8.242;2022-11-14T13:18:35;16.87;;;11.17;;
8260;SDS011;64115;50.170;8.242;2022-11-14T13:21:34;14.50;;;10.97;;
8260;SDS011;64115;50.170;8.242;2022-11-14T13:24:11;13.70;;;10.90;;
8260;SDS011;64115;50.170;8.242;2022-11-14T13:26:49;14.87;;;10.60;;
8260;SDS011;64115;50.170;8.242;2022-11-14T13:35:30;13.33;;;10.67;;
8260;SDS011;64115;50.170;8.242;2022-11-14T13:41:43;14.40;;;11.57;;
8260;SDS011;64115;50.170;8.242;2022-11-14T13:48:12;14.43;;;12.03;;
8260;SDS011;64115;50.170;8.242;2022-11-14T13:51:02;17.73;;;12.77;;
8260;SDS011;64115;50.170;8.242;2022-11-14T13:53:31;18.23;;;12.67;;
8260;SDS011;64115;50.170;8.242;2022-11-14T13:56:00;16.20;;;12.30;;
8260;SDS011;64115;50.170;8.242;2022-11-14T14:01:39;18.37;;;12.73;;
8260;SDS011;64115;50.170;8.242;2022-11-14T14:04:19;18.23;;;13.60;;
8260;SDS011;64115;50.170;8.242;2022-11-14T14:07:01;19.97;;;12.13;;
8260;SDS011;64115;50.170;8.242;2022-11-14T14:09:38;15.70;;;11.87;;
8260;SDS011;64115;50.170;8.242;2022-11-14T14:12:18;15.83;;;11.60;;
8260;SDS011;64115;50.170;8.242;2022-11-14T14:14:57;16.93;;;12.90;;
8260;SDS011;64115;50.170;8.242;2022-11-14T14:17:43;16.10;;;11.87;;
8260;SDS011;64115;50.170;8.242;2022-11-14T14:20:20;15.80;;;11.73;;
8260;SDS011;64115;50.170;8.242;2022-11-14T14:22:58;16.03;;;12.20;;
8260;SDS011;64115;50.170;8.242;2022-11-14T14:25:33;15.10;;;11.67;;
8260;SDS011;64115;50.170;8.242;2022-11-14T14:28:10;18.00;;;11.93;;
8260;SDS011;64115;50.170;8.242;2022-11-14T14:31:01;17.30;;;11.93;;
8260;SDS011;64115;50.170;8.242;2022-11-14T14:33:39;14.57;;;10.93;;
8260;SDS011;64115;50.170;8.242;2022-11-14T14:36:15;17.67;;;13.60;;
8260;SDS011;64115;50.170;8.242;2022-11-14T14:38:43;15.17;;;11.17;;
8260;SDS011;64115;50.170;8.242;2022-11-14T14:41:11;14.40;;;11.13;;
8260;SDS011;64115;50.170;8.242;2022-11-14T14:43:39;15.60;;;10.93;;
8260;SDS011;64115;50.170;8.242;2022-11-14T14:46:11;14.00;;;10.73;;
8260;SDS011;64115;50.170;8.242;2022-11-14T14:48:39;13.47;;;11.00;;
8260;SDS011;64115;50.170;8.242;2022-11-14T14:51:11;13.10;;;10.17;;
8260;SDS011;64115;50.170;8.242;2022-11-14T14:53:39;12.63;;;10.77;;
8260;SDS011;64115;50.170;8.242;2022-11-14T14:56:18;13.97;;;11.03;;
8260;SDS011;64115;50.170;8.242;2022-11-14T14:58:46;15.17;;;11.27;;
8260;SDS011;64115;50.170;8.242;2022-11-14T15:10:52;13.07;;;10.90;;
8260;SDS011;64115;50.170;8.242;2022-11-14T15:13:23;16.33;;;11.70;;
8260;SDS011;64115;50.170;8.242;2022-11-14T15:15:52;12.63;;;11.33;;
8260;SDS011;64115;50.170;8.242;2022-11-14T15:18:21;13.83;;;11.30;;
8260;SDS011;64115;50.170;8.242;2022-11-14T15:21:06;13.87;;;10.90;;
8260;SDS011;64115;50.170;8.242;2022-11-14T15:23:34;12.50;;;11.17;;
8260;SDS011;64115;50.170;8.242;2022-11-14T15:26:08;13.53;;;11.73;;
8260;SDS011;64115;50.170;8.242;2022-11-14T15:28:39;15.07;;;12.27;;
8260;SDS011;64115;50.170;8.242;2022-11-14T15:31:11;17.27;;;13.13;;
8260;SDS011;64115;50.170;8.242;2022-11-14T15:33:42;15.40;;;12.53;;
8260;SDS011;64115;50.170;8.242;2022-11-14T15:36:10;14.50;;;10.80;;
8260;SDS011;64115;50.170;8.242;2022-11-14T15:38:39;13.40;;;10.97;;
8260;SDS011;64115;50.170;8.242;2022-11-14T16:08:42;13.43;;;10.80;;
8260;SDS011;64115;50.170;8.242;2022-11-14T16:11:08;12.67;;;11.13;;
8260;SDS011;64115;50.170;8.242;2022-11-14T16:13:35;13.37;;;11.07;;
8260;SDS011;64115;50.170;8.242;2022-11-14T16:16:02;14.50;;;10.47;;
8260;SDS011;64115;50.170;8.242;2022-11-14T16:18:29;13.50;;;10.80;;
8260;SDS011;64115;50.170;8.242;2022-11-14T16:20:56;11.90;;;10.70;;
8260;SDS011;64115;50.170;8.242;2022-11-14T16:23:24;14.33;;;11.40;;
8260;SDS011;64115;50.170;8.242;2022-11-14T16:25:52;14.67;;;10.93;;
8260;SDS011;64115;50.170;8.242;2022-11-14T16:28:19;12.73;;;10.73;;
8260;SDS011;64115;50.170;8.242;2022-11-14T16:30:46;14.67;;;11.33;;
8260;SDS011;64115;50.170;8.242;2022-11-14T16:33:12;14.27;;;11.53;;
8260;SDS011;64115;50.170;8.242;2022-11-14T16:35:39;12.80;;;11.37;;
8260;SDS011;64115;50.170;8.242;2022-11-14T16:38:06;14.80;;;12.20;;
8260;SDS011;64115;50.170;8.242;2022-11-14T16:40:37;16.83;;;13.03;;
8260;SDS011;64115;50.170;8.242;2022-11-14T16:43:11;15.57;;;13.87;;
8260;SDS011;64115;50.170;8.242;2022-11-14T16:45:39;16.47;;;12.87;;
8260;SDS011;64115;50.170;8.242;2022-11-14T16:48:06;15.80;;;13.40;;
8260;SDS011;64115;50.170;8.242;2022-11-14T16:50:33;16.20;;;13.87;;
8260;SDS011;64115;50.170;8.242;2022-11-14T16:53:02;19.70;;;14.67;;
8260;SDS011;64115;50.170;8.242;2022-11-14T16:55:29;17.63;;;13.33;;
8260;SDS011;64115;50.170;8.242;2022-11-14T16:57:56;17.37;;;13.30;;
8260;SDS011;64115;50.170;8.242;2022-11-14T17:00:27;16.80;;;14.43;;
8260;SDS011;64115;50.170;8.242;2022-11-14T17:02:57;18.67;;;14.40;;
8260;SDS011;64115;50.170;8.242;2022-11-14T17:05:24;16.47;;;13.40;;
8260;SDS011;64115;50.170;8.242;2022-11-14T17:07:50;15.03;;;12.83;;
8260;SDS011;64115;50.170;8.242;2022-11-14T17:10:18;16.80;;;14.00;;